Terminal Aerodrome Forecast
Issued by NWS

Home | Current Version | Previous Version | Text Only | Print | Product List | Glossary On
Versions: 1 2 3 4 5 6 7 8 9 10 11 12 13 14 15 16 17 18 19
719
FTUS45 KABQ 240437 CCA
TAFAEG
TAF COR
KAEG 240437Z 2403/2424 26011KT P6SM SCT080
     FM240400 27015KT P6SM SCT060
      TEMPO 2404/2406 27015G25KT
     FM240600 27018G28KT P6SM VCSH SCT030 BKN060
     FM241100 29020G30KT P6SM SCT060
      AMD NOT SKED=

USA.gov is the U.S. government's official web portal to all federal, state and local government web resources and services.